createdAt,value
2023-01-10T00:00:35.071Z,90.56
2023-01-10T00:03:03.213Z,91.58
2023-01-10T00:05:30.006Z,92.41
2023-01-10T00:07:56.654Z,92.28
2023-01-10T00:10:23.236Z,92.90
2023-01-10T00:13:08.433Z,92.74
2023-01-10T00:15:36.253Z,91.93
2023-01-10T00:18:03.645Z,91.53
2023-01-10T00:20:30.456Z,91.53
2023-01-10T00:22:57.568Z,92.72
2023-01-10T00:25:24.522Z,92.73
2023-01-10T00:28:01.779Z,93.37
2023-01-10T00:30:28.865Z,93.50
2023-01-10T00:32:56.747Z,92.38
2023-01-10T00:35:23.341Z,93.09
2023-01-10T00:37:50.193Z,92.12
2023-01-10T00:40:16.849Z,92.81
2023-01-10T00:43:01.843Z,91.76
2023-01-10T00:45:28.400Z,91.53
2023-01-10T00:47:54.963Z,91.62
2023-01-10T00:50:21.592Z,91.39
2023-01-10T00:52:48.394Z,90.44
2023-01-10T00:55:15.154Z,90.11
2023-01-10T00:57:41.730Z,89.47
2023-01-10T01:00:10.067Z,89.73
2023-01-10T01:02:36.749Z,89.57
2023-01-10T01:05:04.784Z,89.24
2023-01-10T01:07:31.347Z,88.41
2023-01-10T01:10:17.014Z,88.35
2023-01-10T01:12:43.695Z,89.04
2023-01-10T01:15:10.539Z,88.10
2023-01-10T01:17:37.119Z,87.53
2023-01-10T01:20:04.037Z,87.40
2023-01-10T01:22:30.687Z,86.76
2023-01-10T01:24:57.397Z,86.77
2023-01-10T01:27:24.086Z,85.33
2023-01-10T01:29:50.700Z,85.80
2023-01-10T01:32:17.379Z,85.97
2023-01-10T01:34:44.202Z,86.30
2023-01-10T01:37:10.852Z,86.56
2023-01-10T01:39:37.542Z,86.51
2023-01-10T01:42:05.855Z,86.91
2023-01-10T01:44:36.490Z,86.64
2023-01-10T01:47:09.008Z,87.10
2023-01-10T01:49:40.344Z,87.46
2023-01-10T01:52:12.022Z,88.23
2023-01-10T01:54:38.618Z,88.70
2023-01-10T01:57:17.112Z,89.31
2023-01-10T01:59:48.216Z,89.52
2023-01-10T02:02:21.902Z,90.15
2023-01-10T02:05:05.698Z,90.30
2023-01-10T02:07:37.869Z,90.92
2023-01-10T02:10:21.929Z,91.18
2023-01-10T02:12:51.861Z,90.99
2023-01-10T02:15:19.261Z,91.44
2023-01-10T02:17:51.643Z,91.70
2023-01-10T02:20:19.620Z,91.78
2023-01-10T02:23:19.610Z,92.41
2023-01-10T02:26:07.669Z,92.58
2023-01-10T02:28:55.647Z,92.24
2023-01-10T02:31:34.595Z,92.86
2023-01-10T02:34:18.374Z,92.43
2023-01-10T02:37:00.135Z,93.89
2023-01-10T02:39:26.722Z,94.47
2023-01-10T02:42:14.925Z,96.32
2023-01-10T02:45:00.536Z,96.60
2023-01-10T02:47:27.299Z,97.33
2023-01-10T02:49:54.090Z,97.79
2023-01-10T02:52:28.293Z,98.00
2023-01-10T02:55:00.989Z,97.83
2023-01-10T02:57:46.508Z,98.56
2023-01-10T03:00:16.021Z,98.64
2023-01-10T03:02:45.352Z,99.07
2023-01-10T03:05:42.775Z,99.68
2023-01-10T03:08:28.465Z,99.74
2023-01-10T03:10:59.433Z,99.39
2023-01-10T03:13:42.119Z,100.00
2023-01-10T03:16:10.742Z,100.00
2023-01-10T03:18:45.212Z,100.00
2023-01-10T03:21:13.112Z,100.00
2023-01-10T03:23:40.912Z,100.00
2023-01-10T03:26:10.450Z,100.00
2023-01-10T03:28:50.994Z,100.00
2023-01-10T03:31:28.373Z,100.00
2023-01-10T03:33:55.408Z,100.00
2023-01-10T03:36:31.159Z,100.00
2023-01-10T03:39:11.169Z,100.00
2023-01-10T03:41:53.125Z,100.00
2023-01-10T03:44:44.879Z,100.00
2023-01-10T03:47:35.796Z,100.00
2023-01-10T03:50:10.494Z,100.00
2023-01-10T03:52:37.999Z,100.00
2023-01-10T03:55:06.139Z,100.00
2023-01-10T03:57:32.783Z,100.00
2023-01-10T03:59:59.905Z,100.00
2023-01-10T04:02:28.584Z,100.00
2023-01-10T04:04:55.398Z,100.00
2023-01-10T04:07:22.312Z,100.00
2023-01-10T04:09:49.169Z,100.00
2023-01-10T04:12:15.890Z,100.00
2023-01-10T04:14:42.623Z,100.00
2023-01-10T04:17:09.236Z,100.00
2023-01-10T04:19:35.828Z,100.00
2023-01-10T04:22:02.501Z,100.00
2023-01-10T04:24:29.152Z,100.00
2023-01-10T04:26:55.755Z,100.00
2023-01-10T04:29:22.342Z,100.00
2023-01-10T04:31:49.525Z,100.00
2023-01-10T04:34:16.493Z,100.00
2023-01-10T04:36:43.126Z,100.00
2023-01-10T04:39:09.701Z,100.00
2023-01-10T04:41:36.276Z,100.00
2023-01-10T04:44:02.947Z,100.00
2023-01-10T04:46:29.548Z,100.00
2023-01-10T04:48:56.363Z,100.00
2023-01-10T04:51:22.968Z,100.00
2023-01-10T04:53:49.588Z,100.00
2023-01-10T04:56:18.851Z,100.00
2023-01-10T04:58:45.826Z,100.00
2023-01-10T05:01:21.882Z,100.00
2023-01-10T05:03:49.499Z,100.00
2023-01-10T05:06:17.773Z,100.00
2023-01-10T05:08:44.725Z,100.00
2023-01-10T05:11:11.789Z,100.00
2023-01-10T05:13:38.777Z,100.00
2023-01-10T05:16:06.040Z,100.00
2023-01-10T05:18:33.058Z,100.00
2023-01-10T05:21:05.141Z,100.00
2023-01-10T05:23:32.210Z,100.00
2023-01-10T05:26:06.817Z,100.00
2023-01-10T05:28:33.540Z,100.00
2023-01-10T05:31:00.120Z,100.00
2023-01-10T05:33:26.704Z,100.00
2023-01-10T05:35:53.295Z,100.00
2023-01-10T05:38:19.959Z,100.00
2023-01-10T05:40:46.545Z,100.00
2023-01-10T05:43:13.171Z,100.00
2023-01-10T05:45:39.736Z,100.00
2023-01-10T05:48:06.524Z,100.00
2023-01-10T05:50:33.124Z,100.00
2023-01-10T05:53:04.616Z,100.00
2023-01-10T05:55:31.975Z,100.00
2023-01-10T05:57:58.642Z,100.00
2023-01-10T06:00:25.465Z,100.00
2023-01-10T06:02:55.137Z,100.00
2023-01-10T06:05:22.793Z,100.00
2023-01-10T06:07:49.977Z,100.00
2023-01-10T06:10:17.400Z,100.00
2023-01-10T06:12:44.188Z,100.00
2023-01-10T06:15:11.305Z,100.00
2023-01-10T06:17:37.936Z,100.00
2023-01-10T06:20:04.978Z,100.00
2023-01-10T06:22:31.652Z,100.00
2023-01-10T06:24:58.260Z,100.00
2023-01-10T06:27:24.904Z,100.00
2023-01-10T06:29:51.575Z,100.00
2023-01-10T06:32:18.189Z,100.00
2023-01-10T06:34:44.783Z,100.00
2023-01-10T06:37:11.356Z,100.00
2023-01-10T06:39:39.593Z,100.00
2023-01-10T06:42:06.208Z,100.00
2023-01-10T06:44:35.217Z,100.00
2023-01-10T06:47:02.169Z,100.00
2023-01-10T06:49:29.475Z,100.00
2023-01-10T06:51:56.125Z,100.00
2023-01-10T06:54:22.733Z,100.00
2023-01-10T06:56:49.398Z,100.00
2023-01-10T06:59:16.451Z,100.00
2023-01-10T07:01:43.174Z,100.00
2023-01-10T07:04:09.903Z,100.00
2023-01-10T07:06:37.724Z,99.88
2023-01-10T07:09:06.342Z,100.00
2023-01-10T07:11:34.489Z,100.00
2023-01-10T07:14:01.982Z,100.00
2023-01-10T07:16:28.639Z,100.00
2023-01-10T07:18:55.356Z,100.00
2023-01-10T07:21:22.160Z,100.00
2023-01-10T07:23:50.155Z,100.00
2023-01-10T07:26:18.968Z,100.00
2023-01-10T07:28:51.091Z,100.00
2023-01-10T07:31:20.372Z,100.00
2023-01-10T07:33:47.047Z,100.00
2023-01-10T07:36:13.808Z,100.00
2023-01-10T07:38:40.712Z,100.00
2023-01-10T07:41:07.849Z,98.92
2023-01-10T07:43:35.118Z,98.24
2023-01-10T07:46:05.066Z,98.16
2023-01-10T07:48:31.842Z,97.71
2023-01-10T07:51:00.329Z,97.50
2023-01-10T07:53:28.442Z,97.07
2023-01-10T07:55:59.399Z,96.54
2023-01-10T07:58:26.056Z,96.08
2023-01-10T08:00:52.851Z,94.92
2023-01-10T08:03:19.641Z,94.32
2023-01-10T08:05:46.360Z,94.26
2023-01-10T08:08:13.089Z,93.86
2023-01-10T08:10:40.557Z,93.64
2023-01-10T08:13:18.516Z,93.23
2023-01-10T08:15:55.463Z,92.81
2023-01-10T08:18:23.669Z,92.45
2023-01-10T08:20:51.833Z,92.61
2023-01-10T08:23:19.597Z,92.87
2023-01-10T08:25:47.001Z,92.02
2023-01-10T08:28:13.749Z,92.56
2023-01-10T08:30:40.652Z,93.25
2023-01-10T08:33:08.896Z,92.65
2023-01-10T08:35:40.139Z,92.95
2023-01-10T08:38:07.336Z,92.66
2023-01-10T08:40:34.075Z,91.32
2023-01-10T08:43:02.809Z,91.73
2023-01-10T08:45:30.199Z,90.89
2023-01-10T08:47:57.055Z,90.60
2023-01-10T08:50:24.425Z,89.58
2023-01-10T08:52:51.521Z,89.50
2023-01-10T08:55:19.817Z,89.87
2023-01-10T08:57:46.505Z,90.05
2023-01-10T09:00:13.654Z,89.96
2023-01-10T09:02:41.180Z,89.10
2023-01-10T09:05:18.500Z,88.44
2023-01-10T09:07:53.123Z,87.82
2023-01-10T09:10:21.329Z,88.02
2023-01-10T09:12:57.107Z,88.13
2023-01-10T09:15:29.755Z,87.78
2023-01-10T09:17:58.807Z,86.93
2023-01-10T09:20:26.709Z,87.62
2023-01-10T09:22:54.335Z,88.39
2023-01-10T09:25:21.400Z,87.75
2023-01-10T09:27:48.346Z,87.70
2023-01-10T09:30:15.378Z,88.44
2023-01-10T09:32:42.049Z,87.49
2023-01-10T09:35:08.890Z,86.64
2023-01-10T09:37:35.677Z,87.25
2023-01-10T09:40:02.439Z,88.63
2023-01-10T09:42:45.356Z,88.36
2023-01-10T09:45:24.466Z,87.89
2023-01-10T09:48:01.574Z,88.10
2023-01-10T09:50:40.182Z,87.01
2023-01-10T09:53:14.344Z,87.07
2023-01-10T09:55:42.479Z,86.15
2023-01-10T09:58:16.769Z,85.94
2023-01-10T10:00:49.825Z,84.79
2023-01-10T10:03:36.839Z,84.21
2023-01-10T10:06:12.048Z,83.29
2023-01-10T10:08:45.035Z,84.12
2023-01-10T10:11:47.764Z,84.36
2023-01-10T10:14:36.435Z,84.25
2023-01-10T10:17:27.527Z,83.72
2023-01-10T10:20:12.165Z,82.55
2023-01-10T10:22:49.554Z,81.06
2023-01-10T10:25:58.880Z,80.95
2023-01-10T10:28:54.886Z,80.92
2023-01-10T10:31:33.674Z,80.09
2023-01-10T10:34:10.700Z,79.85
2023-01-10T10:36:45.798Z,79.56
2023-01-10T10:39:24.352Z,78.96
2023-01-10T10:41:53.685Z,78.85
2023-01-10T10:44:47.659Z,78.39
2023-01-10T10:47:20.159Z,78.03
2023-01-10T10:49:53.006Z,78.17
2023-01-10T10:52:25.703Z,78.16
2023-01-10T10:54:53.432Z,78.06
2023-01-10T10:57:24.460Z,78.50
2023-01-10T10:59:51.547Z,78.93
2023-01-10T11:02:23.231Z,78.76
2023-01-10T11:04:52.276Z,78.34
2023-01-10T11:07:20.374Z,78.17
2023-01-10T11:09:49.280Z,78.49
2023-01-10T11:12:18.556Z,77.82
2023-01-10T11:14:48.228Z,77.85
2023-01-10T11:17:40.949Z,77.78
2023-01-10T11:20:16.310Z,76.85
2023-01-10T11:22:53.274Z,75.90
2023-01-10T11:25:22.524Z,76.38
2023-01-10T11:27:52.400Z,76.23
2023-01-10T11:30:25.658Z,75.63
2023-01-10T11:32:56.390Z,75.62
2023-01-10T11:35:30.657Z,75.26
2023-01-10T11:38:03.407Z,75.18
2023-01-10T11:40:36.419Z,75.44
2023-01-10T11:43:25.380Z,74.30
2023-01-10T11:45:57.869Z,74.44
2023-01-10T11:48:50.421Z,73.75
2023-01-10T11:51:29.838Z,74.44
2023-01-10T11:54:01.142Z,74.61
2023-01-10T11:56:34.994Z,73.06
2023-01-10T11:59:18.272Z,74.45
2023-01-10T12:01:56.584Z,73.25
2023-01-10T12:04:24.231Z,72.59
2023-01-10T12:07:02.441Z,72.57
2023-01-10T12:09:40.479Z,71.65
2023-01-10T12:12:20.935Z,71.68
2023-01-10T12:14:48.889Z,71.54
2023-01-10T12:17:27.928Z,72.75
2023-01-10T12:19:58.532Z,73.05
2023-01-10T12:22:40.086Z,72.51
2023-01-10T12:25:15.196Z,72.88
2023-01-10T12:27:44.699Z,72.37
2023-01-10T12:30:36.518Z,72.12
2023-01-10T12:33:07.233Z,71.79
2023-01-10T12:36:02.322Z,71.80
2023-01-10T12:39:03.939Z,70.95
2023-01-10T12:42:20.972Z,70.61
2023-01-10T12:44:52.785Z,69.98
2023-01-10T12:47:28.222Z,69.66
2023-01-10T12:49:57.742Z,69.61
2023-01-10T12:52:48.492Z,69.71
2023-01-10T12:55:24.867Z,69.70
2023-01-10T12:57:56.245Z,68.97
2023-01-10T13:00:30.970Z,70.06
2023-01-10T13:03:01.042Z,68.85
2023-01-10T13:05:30.409Z,67.71
2023-01-10T13:08:06.434Z,67.23
2023-01-10T13:10:36.802Z,66.60
2023-01-10T13:13:26.621Z,67.15
2023-01-10T13:16:03.430Z,67.23
2023-01-10T13:18:32.127Z,67.58
2023-01-10T13:21:14.730Z,67.31
2023-01-10T13:23:44.100Z,67.85
2023-01-10T13:26:10.768Z,67.57
2023-01-10T13:28:41.288Z,67.42
2023-01-10T13:31:23.661Z,66.60
2023-01-10T13:34:01.446Z,67.05
2023-01-10T13:36:34.779Z,67.17
2023-01-10T13:39:04.468Z,67.22
2023-01-10T13:42:17.780Z,67.07
2023-01-10T13:45:03.584Z,66.78
2023-01-10T13:47:39.065Z,67.29
2023-01-10T13:50:42.450Z,67.18
2023-01-10T13:53:09.051Z,66.95
2023-01-10T13:55:38.774Z,67.20
2023-01-10T13:58:48.291Z,67.02
2023-01-10T14:01:46.358Z,66.84
2023-01-10T14:04:21.998Z,66.32
2023-01-10T14:07:00.781Z,67.42
2023-01-10T14:09:27.462Z,66.21
2023-01-10T14:12:03.718Z,65.99
2023-01-10T14:14:34.658Z,65.84
2023-01-10T14:17:12.368Z,65.19
2023-01-10T14:19:39.964Z,65.83
2023-01-10T14:22:07.358Z,65.75
2023-01-10T14:24:43.365Z,64.91
2023-01-10T14:27:16.036Z,65.49
2023-01-10T14:29:54.085Z,65.35
2023-01-10T14:32:43.751Z,65.44
2023-01-10T14:35:18.233Z,65.01
2023-01-10T14:37:53.095Z,64.68
2023-01-10T14:40:43.372Z,64.43
2023-01-10T14:43:16.069Z,64.51
2023-01-10T14:46:03.396Z,64.88
2023-01-10T14:48:40.670Z,64.53
2023-01-10T14:51:26.992Z,64.69
2023-01-10T14:54:11.052Z,64.36
2023-01-10T14:56:43.148Z,64.45
2023-01-10T14:59:29.510Z,63.85
2023-01-10T15:02:02.387Z,63.70
2023-01-10T15:04:36.192Z,64.11
2023-01-10T15:07:12.097Z,64.42
2023-01-10T15:09:39.391Z,64.89
2023-01-10T15:12:12.553Z,64.83
2023-01-10T15:14:39.481Z,64.91
2023-01-10T15:17:09.134Z,65.08
2023-01-10T15:19:38.449Z,65.87
2023-01-10T15:22:26.897Z,65.77
2023-01-10T15:25:18.325Z,65.61
2023-01-10T15:27:48.473Z,65.77
2023-01-10T15:30:25.079Z,66.06
2023-01-10T15:32:54.980Z,66.07
2023-01-10T15:35:35.192Z,65.57
2023-01-10T15:38:14.082Z,65.46
2023-01-10T15:40:42.385Z,65.67
2023-01-10T15:43:18.238Z,65.37
2023-01-10T15:45:46.373Z,65.01
2023-01-10T15:48:30.968Z,64.96
2023-01-10T15:51:04.283Z,64.55
2023-01-10T15:53:53.600Z,65.57
2023-01-10T15:56:26.307Z,65.83
2023-01-10T15:58:54.451Z,66.29
2023-01-10T16:01:21.781Z,66.85
2023-01-10T16:03:53.527Z,66.94
2023-01-10T16:06:25.397Z,66.73
2023-01-10T16:08:55.527Z,66.92
2023-01-10T16:11:54.263Z,67.62
2023-01-10T16:14:21.163Z,68.10
2023-01-10T16:16:47.847Z,68.21
2023-01-10T16:19:14.816Z,68.70
2023-01-10T16:21:45.706Z,68.97
2023-01-10T16:24:23.063Z,69.24
2023-01-10T16:26:53.258Z,69.76
2023-01-10T16:29:22.764Z,70.09
2023-01-10T16:31:52.180Z,69.03
2023-01-10T16:34:19.432Z,69.41
2023-01-10T16:36:46.501Z,69.88
2023-01-10T16:39:21.924Z,70.11
2023-01-10T16:42:07.622Z,70.28
2023-01-10T16:44:35.098Z,70.38
2023-01-10T16:47:04.349Z,70.40
2023-01-10T16:49:32.439Z,71.40
2023-01-10T16:51:59.626Z,71.71
2023-01-10T16:54:26.645Z,72.92
2023-01-10T16:56:53.301Z,73.44
2023-01-10T16:59:20.524Z,73.67
2023-01-10T17:01:51.308Z,73.46
2023-01-10T17:04:24.174Z,73.37
2023-01-10T17:06:51.016Z,73.28
2023-01-10T17:09:29.325Z,73.23
2023-01-10T17:12:12.186Z,73.00
2023-01-10T17:14:38.983Z,73.12
2023-01-10T17:17:05.962Z,73.63
2023-01-10T17:19:32.795Z,73.76
2023-01-10T17:22:00.317Z,72.77
2023-01-10T17:24:29.577Z,73.16
2023-01-10T17:26:56.191Z,73.22
2023-01-10T17:29:23.471Z,72.76
2023-01-10T17:31:50.467Z,73.08
2023-01-10T17:34:17.108Z,72.69
2023-01-10T17:36:43.714Z,72.91
2023-01-10T17:39:11.421Z,72.88
2023-01-10T17:41:38.255Z,73.39
2023-01-10T17:44:05.185Z,73.94
2023-01-10T17:46:32.229Z,72.80
2023-01-10T17:48:59.104Z,72.78
2023-01-10T17:51:26.922Z,74.02
2023-01-10T17:53:55.678Z,73.38
2023-01-10T17:56:22.819Z,73.57
2023-01-10T17:58:51.559Z,74.15
2023-01-10T18:01:23.797Z,74.47
2023-01-10T18:03:51.987Z,75.26
2023-01-10T18:06:24.347Z,75.12
2023-01-10T18:08:51.821Z,75.89
2023-01-10T18:11:18.402Z,75.15
2023-01-10T18:13:45.019Z,74.61
2023-01-10T18:16:11.627Z,74.22
2023-01-10T18:18:39.066Z,74.90
2023-01-10T18:21:13.319Z,74.50
2023-01-10T18:23:40.178Z,74.52
2023-01-10T18:26:09.427Z,74.07
2023-01-10T18:28:43.850Z,74.68
2023-01-10T18:31:16.474Z,74.51
2023-01-10T18:33:43.816Z,73.99
2023-01-10T18:36:19.106Z,74.49
2023-01-10T18:38:46.505Z,74.18
2023-01-10T18:41:14.036Z,74.33
2023-01-10T18:43:40.729Z,73.78
2023-01-10T18:46:10.957Z,72.43
2023-01-10T18:48:37.873Z,71.66
2023-01-10T18:51:05.671Z,71.35
2023-01-10T18:53:32.929Z,70.96
2023-01-10T18:56:01.615Z,71.34
2023-01-10T18:58:32.033Z,71.23
2023-01-10T19:01:03.983Z,71.11
2023-01-10T19:03:32.003Z,71.08
2023-01-10T19:06:06.091Z,71.49
2023-01-10T19:08:32.902Z,71.34
2023-01-10T19:11:13.010Z,71.64
2023-01-10T19:13:40.861Z,72.41
2023-01-10T19:16:15.262Z,72.33
2023-01-10T19:18:42.822Z,73.30
2023-01-10T19:21:15.149Z,73.61
2023-01-10T19:23:43.911Z,73.67
2023-01-10T19:26:11.402Z,74.23
2023-01-10T19:28:38.058Z,74.71
2023-01-10T19:31:05.621Z,74.72
2023-01-10T19:33:34.557Z,75.18
2023-01-10T19:36:05.743Z,75.72
2023-01-10T19:38:32.625Z,75.97
2023-01-10T19:40:59.303Z,75.72
2023-01-10T19:43:26.030Z,74.87
2023-01-10T19:45:53.969Z,74.97
2023-01-10T19:48:21.696Z,74.13
2023-01-10T19:50:48.355Z,72.93
2023-01-10T19:53:15.041Z,72.23
2023-01-10T19:55:43.021Z,72.41
2023-01-10T19:58:09.744Z,72.16
2023-01-10T20:00:36.369Z,72.06
2023-01-10T20:03:05.061Z,72.09
2023-01-10T20:05:34.950Z,71.49
2023-01-10T20:08:02.076Z,71.50
2023-01-10T20:10:28.890Z,71.75
2023-01-10T20:12:55.492Z,71.62
2023-01-10T20:15:22.195Z,71.88
2023-01-10T20:17:48.780Z,71.43
2023-01-10T20:20:16.793Z,71.83
2023-01-10T20:22:43.393Z,71.88
2023-01-10T20:25:10.199Z,71.47
2023-01-10T20:27:36.829Z,71.40
2023-01-10T20:30:04.592Z,72.17
2023-01-10T20:32:31.296Z,72.01
2023-01-10T20:34:57.925Z,71.78
2023-01-10T20:37:25.060Z,71.85
2023-01-10T20:39:51.761Z,71.78
2023-01-10T20:42:18.427Z,71.69
2023-01-10T20:44:45.061Z,72.04
2023-01-10T20:47:11.696Z,72.19
2023-01-10T20:49:38.322Z,71.80
2023-01-10T20:52:04.993Z,71.94
2023-01-10T20:54:31.607Z,71.65
2023-01-10T20:56:58.213Z,72.01
2023-01-10T20:59:27.213Z,71.93
2023-01-10T21:01:54.873Z,71.75
2023-01-10T21:04:21.535Z,71.67
2023-01-10T21:06:48.220Z,71.08
2023-01-10T21:09:16.658Z,71.32
2023-01-10T21:11:58.064Z,72.00
2023-01-10T21:14:28.622Z,71.96
2023-01-10T21:16:55.254Z,71.57
2023-01-10T21:19:21.914Z,71.06
2023-01-10T21:21:48.574Z,71.62
2023-01-10T21:24:15.796Z,71.51
2023-01-10T21:26:42.601Z,71.25
2023-01-10T21:29:10.491Z,71.20
2023-01-10T21:31:38.264Z,71.17
2023-01-10T21:34:04.928Z,70.91
2023-01-10T21:36:31.668Z,70.45
2023-01-10T21:38:58.228Z,71.01
2023-01-10T21:41:43.213Z,70.70
2023-01-10T21:44:09.928Z,70.00
2023-01-10T21:46:37.017Z,69.23
2023-01-10T21:49:04.964Z,68.86
2023-01-10T21:51:31.811Z,68.79
2023-01-10T21:53:59.209Z,69.23
2023-01-10T21:56:25.907Z,69.26
2023-01-10T21:58:52.621Z,69.36
2023-01-10T22:01:19.317Z,69.64
2023-01-10T22:03:46.447Z,69.51
2023-01-10T22:06:13.467Z,69.21
2023-01-10T22:08:40.319Z,69.15
2023-01-10T22:11:08.612Z,69.23
2023-01-10T22:13:36.541Z,69.01
2023-01-10T22:16:03.490Z,69.18
2023-01-10T22:18:31.228Z,68.91
2023-01-10T22:20:58.745Z,68.91
2023-01-10T22:23:28.532Z,68.82
2023-01-10T22:26:04.227Z,68.25
2023-01-10T22:28:31.216Z,68.47
2023-01-10T22:30:58.586Z,68.45
2023-01-10T22:33:32.155Z,68.46
2023-01-10T22:36:28.278Z,68.10
2023-01-10T22:38:54.949Z,68.03
2023-01-10T22:41:26.859Z,68.09
2023-01-10T22:43:54.746Z,67.84
2023-01-10T22:46:21.972Z,68.03
2023-01-10T22:48:48.786Z,68.68
2023-01-10T22:51:17.120Z,68.73
2023-01-10T22:53:49.509Z,68.47
2023-01-10T22:56:16.101Z,68.47
2023-01-10T22:58:47.746Z,68.00
2023-01-10T23:01:16.372Z,68.42
2023-01-10T23:03:43.214Z,67.82
2023-01-10T23:06:10.860Z,67.84
2023-01-10T23:08:39.554Z,67.52
2023-01-10T23:11:06.704Z,67.84
2023-01-10T23:13:33.387Z,68.08
2023-01-10T23:16:05.695Z,67.96
2023-01-10T23:18:33.672Z,67.90
2023-01-10T23:21:01.497Z,68.04
2023-01-10T23:23:28.471Z,67.44
2023-01-10T23:26:02.953Z,67.10
2023-01-10T23:28:33.913Z,67.62
2023-01-10T23:31:00.713Z,67.32
2023-01-10T23:33:27.781Z,67.65
2023-01-10T23:35:54.619Z,67.69
2023-01-10T23:38:21.190Z,67.47
2023-01-10T23:40:49.538Z,67.50
2023-01-10T23:43:16.203Z,67.77
2023-01-10T23:45:43.877Z,67.93
2023-01-10T23:48:11.795Z,67.21
2023-01-10T23:50:39.118Z,67.42
2023-01-10T23:53:06.160Z,67.96
2023-01-10T23:55:33.251Z,67.90
2023-01-10T23:58:00.279Z,67.73
